Los 107 — LJNC — position and weather

sailwx.info

Track history (hours):
 
Tides and Currents Weather Stations Pressure Air Temp Water Temp Dewpoint Dewpoint Depression Visibility Wind Speed Wind Dir Waves Ship Positions

Los 107

Last reported at 2017-Oct-23 06:00 UTC. Time now 2017-Oct-23 06:06 UTC.
Position N 68°15' E 015°41'.

Length 16 m; draft 1.2 m.

Type: Pilot. MMSI: 257060500.

Date/timePositionNaut miles runAvg speedWind from/ knotsBaromVisibWave heightAir tempDewpointWater temp
2017-Oct-23 06:00N 68°15' E 015°41'1224.2
2017-Oct-23 05:30N 68°25' E 016°00'0 0.2
2017-Oct-23 05:00N 68°25' E 016°00'0 0.0
2017-Oct-23 04:30N 68°25' E 016°00'0 0.0
2017-Oct-23 04:00N 68°25' E 016°00'0 0.0
2017-Oct-23 03:30N 68°25' E 016°00'0 0.0
2017-Oct-23 03:00N 68°25' E 016°00'0 0.0
2017-Oct-23 02:30N 68°25' E 016°00'0 0.0
2017-Oct-23 02:00N 68°25' E 016°00'0 0.0
2017-Oct-23 01:29N 68°25' E 016°00'0 0.0
2017-Oct-23 01:00N 68°25' E 016°00'0 0.0
2017-Oct-23 00:30N 68°25' E 016°00'0 0.0
2017-Oct-23 00:00N 68°25' E 016°00'0 0.0
2017-Oct-22 23:30N 68°25' E 016°00'0 0.0
2017-Oct-22 23:00N 68°25' E 016°00'0 0.0
2017-Oct-22 22:29N 68°25' E 016°00'0 0.0
2017-Oct-22 22:00N 68°25' E 016°00'0 0.0
2017-Oct-22 21:30N 68°25' E 016°00'0 0.0
2017-Oct-22 21:00N 68°25' E 016°00'0 0.0
2017-Oct-22 20:30N 68°25' E 016°00'0 0.0
2017-Oct-22 20:00N 68°25' E 016°00'0 0.0
2017-Oct-22 19:30N 68°25' E 016°00'0 0.0
2017-Oct-22 19:00N 68°25' E 016°00'0 0.0
2017-Oct-22 18:30N 68°25' E 016°00'0 0.0
2017-Oct-22 17:59N 68°25' E 016°00'0 0.0
2017-Oct-22 17:30N 68°25' E 016°00'0 0.0
2017-Oct-22 17:00N 68°25' E 016°00'0 0.0
2017-Oct-22 16:30N 68°25' E 016°00'0 0.0
2017-Oct-22 16:00N 68°25' E 016°00'0 0.0
2017-Oct-22 15:30N 68°25' E 016°00'0 0.0
2017-Oct-22 15:00N 68°25' E 016°00'1 2.5
2017-Oct-22 14:30N 68°23' E 016°00'4 7.8
2017-Oct-22 14:00N 68°20' E 015°58'3 5.3
2017-Oct-22 13:30N 68°18' E 015°53'4 7.0
2017-Oct-22 13:00N 68°16' E 015°46'4 7.3
2017-Oct-22 12:30N 68°13' E 015°38'816.6
2017-Oct-22 12:00N 68°19' E 015°52'510.0
2017-Oct-22 11:30N 68°24' E 015°59'1224.1
2017-Oct-22 11:01N 68°15' E 015°38'2 4.5
2017-Oct-22 10:30N 68°16' E 015°43'1120.9
2017-Oct-22 10:00N 68°24' E 016°00'0 0.7
2017-Oct-22 09:30N 68°25' E 016°00'0 0.0
2017-Oct-22 09:00N 68°25' E 016°00'0 0.0
2017-Oct-22 08:30N 68°25' E 016°00'0 0.0
2017-Oct-22 08:00N 68°25' E 016°00'0 0.0
2017-Oct-22 07:29N 68°25' E 016°00'0 0.0
2017-Oct-22 07:00N 68°25' E 016°00'0 0.0
2017-Oct-22 06:30N 68°25' E 016°00'613.1
2017-Oct-22 06:00N 68°20' E 015°49'5 9.4
2017-Oct-22 05:31N 68°16' E 015°43'1121.5
2017-Oct-22 05:00N 68°25' E 016°00'0 0.0
2017-Oct-22 04:30N 68°25' E 016°00'0 0.0
2017-Oct-22 03:59N 68°25' E 016°00'0 0.0
2017-Oct-22 03:30N 68°25' E 016°00'0 0.0
2017-Oct-22 03:00N 68°25' E 016°00'0 0.0
2017-Oct-22 02:30N 68°25' E 016°00'0 0.0
2017-Oct-22 02:00N 68°25' E 016°00'0 0.0
2017-Oct-22 01:30N 68°25' E 016°00'0 0.0
2017-Oct-22 01:00N 68°25' E 016°00'0 0.0
2017-Oct-22 00:30N 68°25' E 016°00'0 0.0
2017-Oct-22 00:00N 68°25' E 016°00'0 0.0
2017-Oct-21 23:30N 68°25' E 016°00'0 0.0
2017-Oct-21 23:00N 68°25' E 016°00'0 0.0
2017-Oct-21 22:30N 68°25' E 016°00'1 1.3
2017-Oct-21 22:00N 68°25' E 016°01'1 1.3
2017-Oct-21 21:30N 68°25' E 016°00'0 0.0
2017-Oct-21 21:00N 68°25' E 016°00'0 0.0
2017-Oct-21 20:29N 68°25' E 016°00'0 0.0
2017-Oct-21 20:00N 68°25' E 016°00'0 0.0
2017-Oct-21 19:30N 68°25' E 016°00'0 0.0
2017-Oct-21 19:00N 68°25' E 016°00'0 0.0
2017-Oct-21 18:30N 68°25' E 016°00'0 0.0
2017-Oct-21 18:00N 68°25' E 016°00'0 0.0
2017-Oct-21 17:30N 68°25' E 016°00'0 0.0
2017-Oct-21 17:00N 68°25' E 016°00'0 0.0
2017-Oct-21 16:29N 68°25' E 016°00'0 0.0
2017-Oct-21 16:00N 68°25' E 016°00'0 0.0
2017-Oct-21 15:30N 68°25' E 016°00'0 0.0
2017-Oct-21 15:00N 68°25' E 016°00'0 0.0
2017-Oct-21 14:30N 68°25' E 016°00'0 0.0
2017-Oct-21 13:30N 68°25' E 016°00'0 0.0
2017-Oct-21 13:00N 68°25' E 016°00'0 0.0
2017-Oct-21 12:30N 68°25' E 016°00'0 0.0
2017-Oct-21 12:00N 68°25' E 016°00'0 0.0
2017-Oct-21 11:30N 68°25' E 016°00'0 0.0
2017-Oct-21 11:00N 68°25' E 016°00'0 0.0
2017-Oct-21 10:30N 68°25' E 016°00'0 0.0
2017-Oct-21 10:00N 68°25' E 016°00'0 0.0
2017-Oct-21 09:30N 68°25' E 016°00'0 0.0
2017-Oct-21 09:00N 68°25' E 016°00'0 0.0
2017-Oct-21 08:30N 68°25' E 016°00'0 0.0
2017-Oct-21 08:00N 68°25' E 016°00'0 0.0
2017-Oct-21 07:30N 68°25' E 016°00'0 0.0
2017-Oct-21 07:00N 68°25' E 016°00'0 0.0
2017-Oct-21 06:30N 68°25' E 016°00'0 0.0
2017-Oct-21 05:59N 68°25' E 016°00'0 0.0
2017-Oct-21 05:30N 68°25' E 016°00'0 0.0
2017-Oct-21 04:59N 68°25' E 016°00'0 0.0
2017-Oct-21 04:30N 68°25' E 016°00'0 0.0
2017-Oct-21 04:00N 68°25' E 016°00'0 0.0
2017-Oct-21 03:30N 68°25' E 016°00'0 0.0
2017-Oct-21 03:00N 68°25' E 016°00'0 0.0
2017-Oct-21 02:29N 68°25' E 016°00'0 0.0
2017-Oct-21 01:59N 68°25' E 016°00'0 0.0
2017-Oct-21 01:30N 68°25' E 016°00'0 0.0
2017-Oct-21 01:00N 68°25' E 016°00'0 0.0
2017-Oct-21 00:30N 68°25' E 016°00'0 0.0
2017-Oct-21 00:00N 68°25' E 016°00'0 0.0
2017-Oct-20 23:30N 68°25' E 016°00'0 0.0
2017-Oct-20 23:00N 68°25' E 016°00'0 0.0
2017-Oct-20 22:30N 68°25' E 016°00'0 0.0
2017-Oct-20 22:00N 68°25' E 016°00'0 0.0
2017-Oct-20 21:30N 68°25' E 016°00'0 0.0
2017-Oct-20 21:00N 68°25' E 016°00'0 0.0
2017-Oct-20 20:30N 68°25' E 016°00'0 0.0
2017-Oct-20 20:00N 68°25' E 016°00'0 0.0
2017-Oct-20 19:30N 68°25' E 016°00'0 0.0
2017-Oct-20 19:00N 68°25' E 016°00'0 0.0
2017-Oct-20 18:29N 68°25' E 016°00'0 0.0
2017-Oct-20 18:00N 68°25' E 016°00'0 0.0
2017-Oct-20 17:30N 68°25' E 016°00'3 6.5
2017-Oct-20 17:00N 68°22' E 015°57'1223.6
2017-Oct-20 16:30N 68°13' E 015°37'917.8
2017-Oct-20 16:00N 68°19' E 015°53'612.0
2017-Oct-20 15:30N 68°25' E 016°00'0 0.0
2017-Oct-20 14:59N 68°25' E 016°00'0 0.0
2017-Oct-20 14:00N 68°25' E 016°00'0 0.0
2017-Oct-20 13:31N 68°25' E 016°00'0 0.0
2017-Oct-20 13:01N 68°25' E 016°00'0 0.0
2017-Oct-20 12:30N 68°25' E 016°00'0 0.0
2017-Oct-20 12:01N 68°25' E 016°00'0 0.0
2017-Oct-20 11:30N 68°25' E 016°00'0 0.0
2017-Oct-20 11:00N 68°25' E 016°00'0 0.0
2017-Oct-20 10:30N 68°25' E 016°00'0 0.0
2017-Oct-20 10:00N 68°25' E 016°00'0 0.0
2017-Oct-20 09:30N 68°25' E 016°00'0 0.0
2017-Oct-20 09:00N 68°25' E 016°00'0 0.0
2017-Oct-20 08:30N 68°25' E 016°00'0 0.0
2017-Oct-20 08:00N 68°25' E 016°00'0 0.0
2017-Oct-20 07:31N 68°25' E 016°00'0 0.0
2017-Oct-20 06:59N 68°25' E 016°00'0 0.0
2017-Oct-20 06:30N 68°25' E 016°00'0 0.0
2017-Oct-20 06:00N 68°25' E 016°00'0 0.0
2017-Oct-20 05:30N 68°25' E 016°00'0 0.0
2017-Oct-20 05:00N 68°25' E 016°00'0 0.0
2017-Oct-20 04:31N 68°25' E 016°00'0 0.0
2017-Oct-20 04:00N 68°25' E 016°00'0 0.0
2017-Oct-20 03:30N 68°25' E 016°00'0 0.0
2017-Oct-20 02:59N 68°25' E 016°00'0 0.0
2017-Oct-20 02:30N 68°25' E 016°00'0 0.0
2017-Oct-20 02:00N 68°25' E 016°00'0 0.0
2017-Oct-20 01:30N 68°25' E 016°00'0 0.0
2017-Oct-20 01:00N 68°25' E 016°00'0 0.0
2017-Oct-20 00:30N 68°25' E 016°00'0 0.0
2017-Oct-20 00:01N 68°25' E 016°00'0 0.0
2017-Oct-19 23:30N 68°25' E 016°00'0 0.0
2017-Oct-19 23:01N 68°25' E 016°00'0 0.0
2017-Oct-19 22:30N 68°25' E 016°00'0 0.0
2017-Oct-19 22:00N 68°25' E 016°00'0 0.0
2017-Oct-19 21:30N 68°25' E 016°00'0 0.0
2017-Oct-19 21:01N 68°25' E 016°00'0 0.0
2017-Oct-19 20:30N 68°25' E 016°00'0 0.0
2017-Oct-19 20:00N 68°25' E 016°00'2 3.1
2017-Oct-19 19:30N 68°23' E 015°59'1325.4
2017-Oct-19 19:00N 68°13' E 015°37'1121.8
2017-Oct-19 18:30N 68°21' E 015°56'4 7.3
2017-Oct-19 17:59N 68°25' E 016°00'0 0.0
2017-Oct-19 17:29N 68°25' E 016°00'0 0.0
2017-Oct-19 17:00N 68°25' E 016°00'0 0.0
2017-Oct-19 16:30N 68°25' E 016°00'0 0.0
2017-Oct-19 16:00N 68°25' E 016°00'0 0.0
2017-Oct-19 15:30N 68°25' E 016°00'0 0.0
2017-Oct-19 15:00N 68°25' E 016°00'0 0.0
2017-Oct-19 14:29N 68°25' E 016°00'0 0.0
2017-Oct-19 14:00N 68°25' E 016°00'0 0.0
2017-Oct-19 13:30N 68°25' E 016°00'1 1.8
2017-Oct-19 13:00N 68°24' E 016°02'1 1.9
2017-Oct-19 12:30N 68°25' E 016°00'0 0.0
2017-Oct-19 11:59N 68°25' E 016°00'0 0.0
2017-Oct-19 11:30N 68°25' E 016°00'3 5.2
2017-Oct-19 11:00N 68°22' E 015°58'612.4
2017-Oct-19 10:30N 68°17' E 015°49'713.8
2017-Oct-19 10:00N 68°23' E 015°59'2 3.3
2017-Oct-19 09:30N 68°25' E 016°00'0 0.0
2017-Oct-19 09:00N 68°25' E 016°00'0 0.0
2017-Oct-19 08:30N 68°25' E 016°00'0 0.0
2017-Oct-19 08:00N 68°25' E 016°00'0 0.0
2017-Oct-19 07:30N 68°25' E 016°00'0 0.0
2017-Oct-19 07:00N 68°25' E 016°00'0 0.0
2017-Oct-19 06:30N 68°25' E 016°00'0 0.0
2017-Oct-19 06:00N 68°25' E 016°00'0 0.0
2017-Oct-19 05:30N 68°25' E 016°00'0 0.0
2017-Oct-19 05:00N 68°25' E 016°00'0 0.0
2017-Oct-19 04:30N 68°25' E 016°00'0 0.0
2017-Oct-19 04:00N 68°25' E 016°00'0 0.0
2017-Oct-19 03:30N 68°25' E 016°00'0 0.0
2017-Oct-19 03:01N 68°25' E 016°00'0 0.0
2017-Oct-19 02:30N 68°25' E 016°00'0 0.0
2017-Oct-19 02:00N 68°25' E 016°00'0 0.0
2017-Oct-19 01:30N 68°25' E 016°00'0 0.0
2017-Oct-19 01:00N 68°25' E 016°00'0 0.0
2017-Oct-19 00:30N 68°25' E 016°00'0 0.0
2017-Oct-19 00:00N 68°25' E 016°00'0 0.0
2017-Oct-18 23:30N 68°25' E 016°00'0 0.0
2017-Oct-18 23:00N 68°25' E 016°00'0 0.0
2017-Oct-18 22:30N 68°25' E 016°00'0 0.0
2017-Oct-18 22:00N 68°25' E 016°00'0 0.0
2017-Oct-18 21:30N 68°25' E 016°00'0 0.0
2017-Oct-18 21:00N 68°25' E 016°00'0 0.0
2017-Oct-18 20:30N 68°25' E 016°00'0 0.0
2017-Oct-18 20:00N 68°25' E 016°00'0 0.0
2017-Oct-18 19:30N 68°25' E 016°00'0 0.0
2017-Oct-18 19:00N 68°25' E 016°00'0 0.0
2017-Oct-18 18:31N 68°25' E 016°00'0 0.0
2017-Oct-18 18:00N 68°25' E 016°00'0 0.0
2017-Oct-18 17:30N 68°25' E 016°00'0 0.0
2017-Oct-18 17:00N 68°25' E 016°00'0 0.0
2017-Oct-18 16:30N 68°25' E 016°00'0 0.0
2017-Oct-18 16:00N 68°25' E 016°00'0 0.0
2017-Oct-18 15:30N 68°25' E 016°00'0 0.0
2017-Oct-18 15:00N 68°25' E 016°00'0 0.0
2017-Oct-18 14:00N 68°25' E 016°00'0 0.0
2017-Oct-18 13:30N 68°25' E 016°00'0 0.0
2017-Oct-18 13:00N 68°25' E 016°00'0 0.0
2017-Oct-18 12:30N 68°25' E 016°00'0 0.0
2017-Oct-18 12:00N 68°25' E 016°00'0 0.0
2017-Oct-18 11:30N 68°25' E 016°00'0 0.8
2017-Oct-18 11:00N 68°25' E 015°60'0 0.0
2017-Oct-18 10:30N 68°25' E 015°60'0 0.0
2017-Oct-18 10:00N 68°25' E 015°60'0 0.0
2017-Oct-18 09:30N 68°25' E 015°60'2 4.1
2017-Oct-18 09:00N 68°23' E 015°60'2 3.5
2017-Oct-18 08:30N 68°25' E 016°00'1 2.7
2017-Oct-18 08:00N 68°23' E 015°60'3 6.7
2017-Oct-18 07:30N 68°20' E 015°60'4 8.6
2017-Oct-18 07:00N 68°23' E 016°09'4 7.8
2017-Oct-18 06:31N 68°25' E 016°00'0 0.0
2017-Oct-18 06:00N 68°25' E 016°00'0 0.0
2017-Oct-18 05:30N 68°25' E 016°00'0 0.0
2017-Oct-18 05:00N 68°25' E 016°00'0 0.0
2017-Oct-18 04:30N 68°25' E 016°00'0 0.0
2017-Oct-18 04:00N 68°25' E 016°00'1020.3
2017-Oct-18 03:30N 68°17' E 015°44'1 1.1
2017-Oct-18 03:00N 68°17' E 015°45'1018.7
2017-Oct-18 02:30N 68°25' E 016°00'0 0.0
2017-Oct-18 02:00N 68°25' E 016°00'0 0.0
2017-Oct-18 01:30N 68°25' E 016°00'0 0.0
2017-Oct-18 01:00N 68°25' E 016°00'0 0.0
2017-Oct-18 00:29N 68°25' E 016°00'0 0.0
2017-Oct-18 00:00N 68°25' E 016°00'0 0.0
2017-Oct-17 23:30N 68°25' E 016°00'0 0.0
2017-Oct-17 23:01N 68°25' E 016°00'0 0.0
2017-Oct-17 22:30N 68°25' E 016°00'0 0.0
2017-Oct-17 22:00N 68°25' E 016°00'0 0.0
2017-Oct-17 21:30N 68°25' E 016°00'0 0.0
2017-Oct-17 21:00N 68°25' E 016°00'0 0.0
2017-Oct-17 20:30N 68°25' E 016°00'0 0.0
2017-Oct-17 20:00N 68°25' E 016°00'0 0.0
2017-Oct-17 19:30N 68°25' E 016°00'0 0.0
2017-Oct-17 19:00N 68°25' E 016°00'0 0.0
2017-Oct-17 18:30N 68°25' E 016°00'0 0.0
2017-Oct-17 18:01N 68°25' E 016°00'0 0.0
2017-Oct-17 17:30N 68°25' E 016°00'0 0.0
2017-Oct-17 17:01N 68°25' E 016°00'0 0.0
2017-Oct-17 16:31N 68°25' E 016°00'0 0.0
2017-Oct-17 16:01N 68°25' E 016°00'0 0.0
2017-Oct-17 15:30N 68°25' E 016°00'0 0.0
2017-Oct-17 15:00N 68°25' E 016°00'0 0.0
2017-Oct-17 14:30N 68°25' E 016°00'0 0.0
2017-Oct-17 14:00N 68°25' E 016°00'0 0.0
2017-Oct-17 13:30N 68°25' E 016°00'0 0.0
2017-Oct-17 13:00N 68°25' E 016°00'3 5.0
2017-Oct-17 12:30N 68°22' E 015°58'1021.1
2017-Oct-17 12:00N 68°14' E 015°41'815.1
2017-Oct-17 11:30N 68°21' E 015°50'510.8
2017-Oct-17 11:00N 68°25' E 016°00'0 0.0
2017-Oct-17 10:30N 68°25' E 016°00'0 0.0
2017-Oct-17 10:00N 68°25' E 016°00'0 0.0
2017-Oct-17 09:30N 68°25' E 016°00'0 0.0
2017-Oct-17 09:00N 68°25' E 016°00'0 0.0
2017-Oct-17 08:30N 68°25' E 016°00'0 0.0
2017-Oct-17 08:00N 68°25' E 016°00'0 0.0
2017-Oct-17 07:30N 68°25' E 016°00'0 0.0
2017-Oct-17 07:00N 68°25' E 016°00'0 0.0
2017-Oct-17 06:30N 68°25' E 016°00'0 0.0
2017-Oct-17 06:00N 68°25' E 016°00'0 0.0
2017-Oct-17 05:30N 68°25' E 016°00'0 0.0
2017-Oct-17 05:00N 68°25' E 016°00'0 0.0
2017-Oct-17 04:30N 68°25' E 016°00'0 0.0
2017-Oct-17 04:00N 68°25' E 016°00'0 0.0
2017-Oct-17 03:30N 68°25' E 016°00'0 0.0
2017-Oct-17 03:00N 68°25' E 016°00'0 0.0
2017-Oct-17 02:30N 68°25' E 016°00'0 0.0
2017-Oct-17 02:00N 68°25' E 016°00'0 0.0
2017-Oct-17 01:30N 68°25' E 016°00'0 0.0
2017-Oct-17 01:00N 68°25' E 016°00'0 0.0
2017-Oct-17 00:30N 68°25' E 016°00'0 0.0
2017-Oct-17 00:00N 68°25' E 016°00'0 0.0
2017-Oct-16 23:30N 68°25' E 016°00'0 0.0
2017-Oct-16 23:00N 68°25' E 016°00'0 0.0
2017-Oct-16 22:30N 68°25' E 016°00'0 0.0
2017-Oct-16 21:59N 68°25' E 016°00'0 0.0
2017-Oct-16 21:30N 68°25' E 016°00'0 0.0
2017-Oct-16 21:00N 68°25' E 016°00'0 0.0
2017-Oct-16 20:30N 68°25' E 016°00'0 0.0
2017-Oct-16 20:00N 68°25' E 016°00'0 0.0
2017-Oct-16 19:30N 68°25' E 016°00'0 0.0
2017-Oct-16 19:00N 68°25' E 016°00'0 0.0
2017-Oct-16 18:30N 68°25' E 016°00'0 0.0
2017-Oct-16 18:00N 68°25' E 016°00'0 0.0
2017-Oct-16 17:30N 68°25' E 016°00'0 0.0
2017-Oct-16 17:00N 68°25' E 016°00'0 0.0
2017-Oct-16 16:30N 68°25' E 016°00'0 0.0
2017-Oct-16 16:00N 68°25' E 016°00'0 0.0
2017-Oct-16 15:30N 68°25' E 016°00'0 0.0
2017-Oct-16 15:00N 68°25' E 016°00'0 0.0
2017-Oct-16 14:30N 68°25' E 016°00'0 0.0
2017-Oct-16 13:30N 68°25' E 016°00'0 0.0
2017-Oct-16 13:00N 68°25' E 016°00'0 0.0
2017-Oct-16 12:30N 68°25' E 016°00'0 0.0
2017-Oct-16 12:00N 68°25' E 016°00'0 0.0
2017-Oct-16 11:30N 68°25' E 016°00'0 0.0
2017-Oct-16 11:00N 68°25' E 016°00'0 0.0
2017-Oct-16 10:30N 68°25' E 016°00'0 0.0
2017-Oct-16 10:00N 68°25' E 016°00'0 0.0
2017-Oct-16 09:30N 68°25' E 016°00'0 0.0
2017-Oct-16 09:00N 68°25' E 016°00'0 0.0
2017-Oct-16 08:30N 68°25' E 016°00'0 0.0
2017-Oct-16 08:00N 68°25' E 016°00'0 0.0
2017-Oct-16 07:30N 68°25' E 016°00'0 0.0
2017-Oct-16 07:00N 68°25' E 016°00'0 0.0
2017-Oct-16 06:30N 68°25' E 016°00'0 0.0
2017-Oct-16 06:00N 68°25' E 016°00'0 0.0
2017-Oct-16 05:30N 68°25' E 016°00'0 0.0
2017-Oct-16 05:00N 68°25' E 016°00'0 0.0
2017-Oct-16 04:30N 68°25' E 016°00'0 0.0
2017-Oct-16 04:00N 68°25' E 016°00'0 0.0
2017-Oct-16 03:30N 68°25' E 016°00'0 0.0
2017-Oct-16 02:59N 68°25' E 016°00'0 0.0
2017-Oct-16 02:30N 68°25' E 016°00'0 0.0
2017-Oct-16 02:00N 68°25' E 016°00'0 0.0
2017-Oct-16 01:30N 68°25' E 016°00'0 0.0
2017-Oct-16 01:00N 68°25' E 016°00'0 0.0
2017-Oct-16 00:30N 68°25' E 016°00'0 0.0
2017-Oct-15 23:59N 68°25' E 016°00'0 0.0
2017-Oct-15 23:30N 68°25' E 016°00'1 2.1
2017-Oct-15 23:00N 68°24' E 016°02'1 2.1
2017-Oct-15 22:30N 68°25' E 016°00'0 0.2
2017-Oct-15 22:00N 68°25' E 016°00'1 2.0
2017-Oct-15 21:30N 68°24' E 016°02'1 1.9
2017-Oct-15 21:00N 68°25' E 016°00'0 0.0
2017-Oct-15 20:31N 68°25' E 016°00'0 0.0
2017-Oct-15 20:01N 68°25' E 016°00'0 0.0
2017-Oct-15 19:30N 68°25' E 016°00'0 0.0
2017-Oct-15 19:00N 68°25' E 016°00'0 0.0
2017-Oct-15 18:30N 68°25' E 016°00'0 0.0
2017-Oct-15 18:00N 68°25' E 016°00'0 0.0
2017-Oct-15 17:29N 68°25' E 016°00'0 0.0
2017-Oct-15 17:00N 68°25' E 016°00'0 0.0
2017-Oct-15 16:30N 68°25' E 016°00'0 0.0
2017-Oct-15 16:00N 68°25' E 016°00'0 0.0
2017-Oct-15 15:31N 68°25' E 016°00'0 0.0
2017-Oct-15 15:01N 68°25' E 016°00'0 0.0
2017-Oct-15 14:01N 68°25' E 016°00'0 0.0
2017-Oct-15 13:30N 68°25' E 016°00'0 0.0
2017-Oct-15 13:00N 68°25' E 016°00'0 0.0
2017-Oct-15 12:31N 68°25' E 016°00'0 0.0
2017-Oct-15 12:00N 68°25' E 016°00'0 0.0
2017-Oct-15 11:30N 68°25' E 016°00'0 0.0
2017-Oct-15 11:00N 68°25' E 016°00'0 0.0
2017-Oct-15 10:30N 68°25' E 016°00'0 0.0
2017-Oct-15 10:00N 68°25' E 016°00'0 0.0
2017-Oct-15 09:30N 68°25' E 016°00'0 0.0
2017-Oct-15 09:01N 68°25' E 016°00'0 0.0
2017-Oct-15 08:30N 68°25' E 016°00'0 0.0
2017-Oct-15 08:00N 68°25' E 016°00'0 0.0
2017-Oct-15 07:30N 68°25' E 016°00'0 0.0
2017-Oct-15 07:00N 68°25' E 016°00'0 0.0
2017-Oct-15 06:30N 68°25' E 016°00'0 0.0
2017-Oct-15 06:00N 68°25' E 016°00'0 0.0
2017-Oct-15 05:30N 68°25' E 016°00'0 0.0
2017-Oct-15 05:00N 68°25' E 016°00'0 0.0
2017-Oct-15 04:30N 68°25' E 016°00'0 0.0
2017-Oct-15 04:00N 68°25' E 016°00'0 0.0
2017-Oct-15 03:30N 68°25' E 016°00'0 0.0
2017-Oct-15 03:00N 68°25' E 016°00'612.8
2017-Oct-15 02:30N 68°19' E 015°52'611.6
2017-Oct-15 02:00N 68°15' E 015°41'1121.7
2017-Oct-15 01:30N 68°23' E 015°59'2 3.6
2017-Oct-15 01:01N 68°25' E 016°02'1 1.1
2017-Oct-15 00:30N 68°25' E 016°00'0 0.0
2017-Oct-15 00:00N 68°25' E 016°00'0 0.0
2017-Oct-14 23:30N 68°25' E 016°00'0 0.0
2017-Oct-14 23:00N 68°25' E 016°00'0 0.0
2017-Oct-14 22:30N 68°25' E 016°00'0 0.0
2017-Oct-14 22:00N 68°25' E 016°00'0 0.0
2017-Oct-14 21:30N 68°25' E 016°00'0 0.0
2017-Oct-14 21:00N 68°25' E 016°00'0 0.0
2017-Oct-14 20:30N 68°25' E 016°00'0 0.0
2017-Oct-14 20:00N 68°25' E 016°00'0 0.0
2017-Oct-14 19:30N 68°25' E 016°00'0 0.0
2017-Oct-14 19:00N 68°25' E 016°00'0 0.0
2017-Oct-14 18:30N 68°25' E 016°00'0 0.0
2017-Oct-14 18:01N 68°25' E 016°00'0 0.0
2017-Oct-14 17:30N 68°25' E 016°00'0 0.0
2017-Oct-14 17:00N 68°25' E 016°00'0 0.0
2017-Oct-14 16:30N 68°25' E 016°00'0 0.0
2017-Oct-14 16:00N 68°25' E 016°00'0 0.0
2017-Oct-14 15:30N 68°25' E 016°00'0 0.0
2017-Oct-14 15:00N 68°25' E 016°00'0 0.0
2017-Oct-14 14:30N 68°25' E 016°00'0 0.0
2017-Oct-14 14:00N 68°25' E 016°00'0 0.0
2017-Oct-14 13:30N 68°25' E 016°00'0 0.0
2017-Oct-14 13:00N 68°25' E 016°00'0 0.0
2017-Oct-14 12:30N 68°25' E 016°00'0 0.0
2017-Oct-14 12:00N 68°25' E 016°00'816.8
2017-Oct-14 11:30N 68°16' E 016°03'817.0
2017-Oct-14 11:00N 68°25' E 016°00'0 0.0
2017-Oct-14 10:30N 68°25' E 016°00'0 0.0
2017-Oct-14 10:00N 68°25' E 016°00'0 0.0
2017-Oct-14 09:29N 68°25' E 016°00'0 0.0
2017-Oct-14 09:00N 68°25' E 016°00'0 0.0
2017-Oct-14 08:30N 68°25' E 016°00'0 0.0
2017-Oct-14 08:00N 68°25' E 016°00'0 0.0
2017-Oct-14 07:30N 68°25' E 016°00'0 0.0
2017-Oct-14 07:00N 68°25' E 016°00'0 0.0
2017-Oct-14 06:30N 68°25' E 016°00'4 8.4
2017-Oct-14 06:00N 68°21' E 015°55'1122.7
2017-Oct-14 05:30N 68°13' E 015°34'1223.7
2017-Oct-14 05:00N 68°21' E 015°56'4 7.1
2017-Oct-14 04:29N 68°25' E 016°00'0 0.0
2017-Oct-14 04:00N 68°25' E 016°00'0 0.0
2017-Oct-14 03:30N 68°25' E 016°00'0 0.0
2017-Oct-14 03:00N 68°25' E 016°00'0 0.0
2017-Oct-14 02:30N 68°25' E 016°00'0 0.0
2017-Oct-14 02:00N 68°25' E 016°00'0 0.0
2017-Oct-14 01:30N 68°25' E 016°00'4 7.0
2017-Oct-14 01:00N 68°23' E 016°08'4 7.0
2017-Oct-14 00:30N 68°25' E 016°00'0 0.0
2017-Oct-14 00:00N 68°25' E 016°00'0 0.0
2017-Oct-13 23:30N 68°25' E 016°00'0 0.0
2017-Oct-13 23:00N 68°25' E 016°00'0 0.0
2017-Oct-13 22:30N 68°25' E 016°00'0 0.0
2017-Oct-13 22:00N 68°25' E 016°00'0 0.0
2017-Oct-13 21:30N 68°25' E 016°00'0 0.0
2017-Oct-13 21:00N 68°25' E 016°00'0 0.0
2017-Oct-13 20:30N 68°25' E 016°00'3 6.7
2017-Oct-13 19:59N 68°23' E 016°08'3 6.9
2017-Oct-13 19:30N 68°25' E 016°01'0 0.5
2017-Oct-13 19:00N 68°25' E 016°00'0 0.0
2017-Oct-13 18:29N 68°25' E 016°00'0 0.0
2017-Oct-13 18:00N 68°25' E 016°00'0 0.0
2017-Oct-13 17:30N 68°25' E 016°00'0 0.0
2017-Oct-13 17:00N 68°25' E 016°00'0 0.0
2017-Oct-13 16:30N 68°25' E 016°00'0 0.0
2017-Oct-13 16:00N 68°25' E 016°00'0 0.0
2017-Oct-13 15:30N 68°25' E 016°00'0 0.0
2017-Oct-13 15:00N 68°25' E 016°00'0 0.0
2017-Oct-13 14:30N 68°25' E 016°00'4 7.7
2017-Oct-13 14:00N 68°21' E 015°56'714.6
2017-Oct-13 13:30N 68°15' E 015°46'1224.4
2017-Oct-13 13:00N 68°21' E 016°14'612.0
2017-Oct-13 12:30N 68°25' E 016°00'0 0.0
2017-Oct-13 12:00N 68°25' E 016°00'0 0.0
2017-Oct-13 11:30N 68°25' E 016°00'0 0.0
2017-Oct-13 11:00N 68°25' E 016°00'0 0.0
2017-Oct-13 10:30N 68°25' E 016°00'0 0.0
2017-Oct-13 09:59N 68°25' E 016°00'0 0.0
2017-Oct-13 09:29N 68°25' E 016°00'0 0.0
2017-Oct-13 09:00N 68°25' E 016°00'0 0.0
2017-Oct-13 08:30N 68°25' E 016°00'0 0.0
2017-Oct-13 08:00N 68°25' E 016°00'  
Track history (hours):
 
Tides and Currents Weather Stations Pressure Air Temp Water Temp Dewpoint Dewpoint Depression Visibility Wind Speed Wind Dir Waves Ship Positions

Los 107

Last reported at 2017-Oct-23 06:00 UTC. Time now 2017-Oct-23 06:06 UTC.
Position N 68°15' E 015°41'.

Length 16 m; draft 1.2 m.

Type: Pilot. MMSI: 257060500.

Date/timePositionNaut miles runAvg speedWind from/ knotsBaromVisibWave heightAir tempDewpointWater temp
2017-Oct-23 06:00N 68°15' E 015°41'1224.2
2017-Oct-23 05:30N 68°25' E 016°00'0 0.2
2017-Oct-23 05:00N 68°25' E 016°00'0 0.0
2017-Oct-23 04:30N 68°25' E 016°00'0 0.0
2017-Oct-23 04:00N 68°25' E 016°00'0 0.0
2017-Oct-23 03:30N 68°25' E 016°00'0 0.0
2017-Oct-23 03:00N 68°25' E 016°00'0 0.0
2017-Oct-23 02:30N 68°25' E 016°00'0 0.0
2017-Oct-23 02:00N 68°25' E 016°00'0 0.0
2017-Oct-23 01:29N 68°25' E 016°00'0 0.0
2017-Oct-23 01:00N 68°25' E 016°00'0 0.0
2017-Oct-23 00:30N 68°25' E 016°00'0 0.0
2017-Oct-23 00:00N 68°25' E 016°00'0 0.0
2017-Oct-22 23:30N 68°25' E 016°00'0 0.0
2017-Oct-22 23:00N 68°25' E 016°00'0 0.0
2017-Oct-22 22:29N 68°25' E 016°00'0 0.0
2017-Oct-22 22:00N 68°25' E 016°00'0 0.0
2017-Oct-22 21:30N 68°25' E 016°00'0 0.0
2017-Oct-22 21:00N 68°25' E 016°00'0 0.0
2017-Oct-22 20:30N 68°25' E 016°00'0 0.0
2017-Oct-22 20:00N 68°25' E 016°00'0 0.0
2017-Oct-22 19:30N 68°25' E 016°00'0 0.0
2017-Oct-22 19:00N 68°25' E 016°00'0 0.0
2017-Oct-22 18:30N 68°25' E 016°00'0 0.0
2017-Oct-22 17:59N 68°25' E 016°00'0 0.0
2017-Oct-22 17:30N 68°25' E 016°00'0 0.0
2017-Oct-22 17:00N 68°25' E 016°00'0 0.0
2017-Oct-22 16:30N 68°25' E 016°00'0 0.0
2017-Oct-22 16:00N 68°25' E 016°00'0 0.0
2017-Oct-22 15:30N 68°25' E 016°00'0 0.0
2017-Oct-22 15:00N 68°25' E 016°00'1 2.5
2017-Oct-22 14:30N 68°23' E 016°00'4 7.8
2017-Oct-22 14:00N 68°20' E 015°58'3 5.3
2017-Oct-22 13:30N 68°18' E 015°53'4 7.0
2017-Oct-22 13:00N 68°16' E 015°46'4 7.3
2017-Oct-22 12:30N 68°13' E 015°38'816.6
2017-Oct-22 12:00N 68°19' E 015°52'510.0
2017-Oct-22 11:30N 68°24' E 015°59'1224.1
2017-Oct-22 11:01N 68°15' E 015°38'2 4.5
2017-Oct-22 10:30N 68°16' E 015°43'1120.9
2017-Oct-22 10:00N 68°24' E 016°00'0 0.7
2017-Oct-22 09:30N 68°25' E 016°00'0 0.0
2017-Oct-22 09:00N 68°25' E 016°00'0 0.0
2017-Oct-22 08:30N 68°25' E 016°00'0 0.0
2017-Oct-22 08:00N 68°25' E 016°00'0 0.0
2017-Oct-22 07:29N 68°25' E 016°00'0 0.0
2017-Oct-22 07:00N 68°25' E 016°00'0 0.0
2017-Oct-22 06:30N 68°25' E 016°00'613.1
2017-Oct-22 06:00N 68°20' E 015°49'5 9.4
2017-Oct-22 05:31N 68°16' E 015°43'1121.5
2017-Oct-22 05:00N 68°25' E 016°00'0 0.0
2017-Oct-22 04:30N 68°25' E 016°00'0 0.0
2017-Oct-22 03:59N 68°25' E 016°00'0 0.0
2017-Oct-22 03:30N 68°25' E 016°00'0 0.0
2017-Oct-22 03:00N 68°25' E 016°00'0 0.0
2017-Oct-22 02:30N 68°25' E 016°00'0 0.0
2017-Oct-22 02:00N 68°25' E 016°00'0 0.0
2017-Oct-22 01:30N 68°25' E 016°00'0 0.0
2017-Oct-22 01:00N 68°25' E 016°00'0 0.0
2017-Oct-22 00:30N 68°25' E 016°00'0 0.0
2017-Oct-22 00:00N 68°25' E 016°00'0 0.0
2017-Oct-21 23:30N 68°25' E 016°00'0 0.0
2017-Oct-21 23:00N 68°25' E 016°00'0 0.0
2017-Oct-21 22:30N 68°25' E 016°00'1 1.3
2017-Oct-21 22:00N 68°25' E 016°01'1 1.3
2017-Oct-21 21:30N 68°25' E 016°00'0 0.0
2017-Oct-21 21:00N 68°25' E 016°00'0 0.0
2017-Oct-21 20:29N 68°25' E 016°00'0 0.0
2017-Oct-21 20:00N 68°25' E 016°00'0 0.0
2017-Oct-21 19:30N 68°25' E 016°00'0 0.0
2017-Oct-21 19:00N 68°25' E 016°00'0 0.0
2017-Oct-21 18:30N 68°25' E 016°00'0 0.0
2017-Oct-21 18:00N 68°25' E 016°00'0 0.0
2017-Oct-21 17:30N 68°25' E 016°00'0 0.0
2017-Oct-21 17:00N 68°25' E 016°00'0 0.0
2017-Oct-21 16:29N 68°25' E 016°00'0 0.0
2017-Oct-21 16:00N 68°25' E 016°00'0 0.0
2017-Oct-21 15:30N 68°25' E 016°00'0 0.0
2017-Oct-21 15:00N 68°25' E 016°00'0 0.0
2017-Oct-21 14:30N 68°25' E 016°00'0 0.0
2017-Oct-21 13:30N 68°25' E 016°00'0 0.0
2017-Oct-21 13:00N 68°25' E 016°00'0 0.0
2017-Oct-21 12:30N 68°25' E 016°00'0 0.0
2017-Oct-21 12:00N 68°25' E 016°00'0 0.0
2017-Oct-21 11:30N 68°25' E 016°00'0 0.0
2017-Oct-21 11:00N 68°25' E 016°00'0 0.0
2017-Oct-21 10:30N 68°25' E 016°00'0 0.0
2017-Oct-21 10:00N 68°25' E 016°00'0 0.0
2017-Oct-21 09:30N 68°25' E 016°00'0 0.0
2017-Oct-21 09:00N 68°25' E 016°00'0 0.0
2017-Oct-21 08:30N 68°25' E 016°00'0 0.0
2017-Oct-21 08:00N 68°25' E 016°00'0 0.0
2017-Oct-21 07:30N 68°25' E 016°00'0 0.0
2017-Oct-21 07:00N 68°25' E 016°00'0 0.0
2017-Oct-21 06:30N 68°25' E 016°00'0 0.0
2017-Oct-21 05:59N 68°25' E 016°00'0 0.0
2017-Oct-21 05:30N 68°25' E 016°00'0 0.0
2017-Oct-21 04:59N 68°25' E 016°00'0 0.0
2017-Oct-21 04:30N 68°25' E 016°00'0 0.0
2017-Oct-21 04:00N 68°25' E 016°00'0 0.0
2017-Oct-21 03:30N 68°25' E 016°00'0 0.0
2017-Oct-21 03:00N 68°25' E 016°00'0 0.0
2017-Oct-21 02:29N 68°25' E 016°00'0 0.0
2017-Oct-21 01:59N 68°25' E 016°00'0 0.0
2017-Oct-21 01:30N 68°25' E 016°00'0 0.0
2017-Oct-21 01:00N 68°25' E 016°00'0 0.0
2017-Oct-21 00:30N 68°25' E 016°00'0 0.0
2017-Oct-21 00:00N 68°25' E 016°00'0 0.0
2017-Oct-20 23:30N 68°25' E 016°00'0 0.0
2017-Oct-20 23:00N 68°25' E 016°00'0 0.0
2017-Oct-20 22:30N 68°25' E 016°00'0 0.0
2017-Oct-20 22:00N 68°25' E 016°00'0 0.0
2017-Oct-20 21:30N 68°25' E 016°00'0 0.0
2017-Oct-20 21:00N 68°25' E 016°00'0 0.0
2017-Oct-20 20:30N 68°25' E 016°00'0 0.0
2017-Oct-20 20:00N 68°25' E 016°00'0 0.0
2017-Oct-20 19:30N 68°25' E 016°00'0 0.0
2017-Oct-20 19:00N 68°25' E 016°00'0 0.0
2017-Oct-20 18:29N 68°25' E 016°00'0 0.0
2017-Oct-20 18:00N 68°25' E 016°00'0 0.0
2017-Oct-20 17:30N 68°25' E 016°00'3 6.5
2017-Oct-20 17:00N 68°22' E 015°57'1223.6
2017-Oct-20 16:30N 68°13' E 015°37'917.8
2017-Oct-20 16:00N 68°19' E 015°53'612.0
2017-Oct-20 15:30N 68°25' E 016°00'0 0.0
2017-Oct-20 14:59N 68°25' E 016°00'0 0.0
2017-Oct-20 14:00N 68°25' E 016°00'0 0.0
2017-Oct-20 13:31N 68°25' E 016°00'0 0.0
2017-Oct-20 13:01N 68°25' E 016°00'0 0.0
2017-Oct-20 12:30N 68°25' E 016°00'0 0.0
2017-Oct-20 12:01N 68°25' E 016°00'0 0.0
2017-Oct-20 11:30N 68°25' E 016°00'0 0.0
2017-Oct-20 11:00N 68°25' E 016°00'0 0.0
2017-Oct-20 10:30N 68°25' E 016°00'0 0.0
2017-Oct-20 10:00N 68°25' E 016°00'0 0.0
2017-Oct-20 09:30N 68°25' E 016°00'0 0.0
2017-Oct-20 09:00N 68°25' E 016°00'0 0.0
2017-Oct-20 08:30N 68°25' E 016°00'0 0.0
2017-Oct-20 08:00N 68°25' E 016°00'0 0.0
2017-Oct-20 07:31N 68°25' E 016°00'0 0.0
2017-Oct-20 06:59N 68°25' E 016°00'0 0.0
2017-Oct-20 06:30N 68°25' E 016°00'0 0.0
2017-Oct-20 06:00N 68°25' E 016°00'0 0.0
2017-Oct-20 05:30N 68°25' E 016°00'0 0.0
2017-Oct-20 05:00N 68°25' E 016°00'0 0.0
2017-Oct-20 04:31N 68°25' E 016°00'0 0.0
2017-Oct-20 04:00N 68°25' E 016°00'0 0.0
2017-Oct-20 03:30N 68°25' E 016°00'0 0.0
2017-Oct-20 02:59N 68°25' E 016°00'0 0.0
2017-Oct-20 02:30N 68°25' E 016°00'0 0.0
2017-Oct-20 02:00N 68°25' E 016°00'0 0.0
2017-Oct-20 01:30N 68°25' E 016°00'0 0.0
2017-Oct-20 01:00N 68°25' E 016°00'0 0.0
2017-Oct-20 00:30N 68°25' E 016°00'0 0.0
2017-Oct-20 00:01N 68°25' E 016°00'0 0.0
2017-Oct-19 23:30N 68°25' E 016°00'0 0.0
2017-Oct-19 23:01N 68°25' E 016°00'0 0.0
2017-Oct-19 22:30N 68°25' E 016°00'0 0.0
2017-Oct-19 22:00N 68°25' E 016°00'0 0.0
2017-Oct-19 21:30N 68°25' E 016°00'0 0.0
2017-Oct-19 21:01N 68°25' E 016°00'0 0.0
2017-Oct-19 20:30N 68°25' E 016°00'0 0.0
2017-Oct-19 20:00N 68°25' E 016°00'2 3.1
2017-Oct-19 19:30N 68°23' E 015°59'1325.4
2017-Oct-19 19:00N 68°13' E 015°37'1121.8
2017-Oct-19 18:30N 68°21' E 015°56'4 7.3
2017-Oct-19 17:59N 68°25' E 016°00'0 0.0
2017-Oct-19 17:29N 68°25' E 016°00'0 0.0
2017-Oct-19 17:00N 68°25' E 016°00'0 0.0
2017-Oct-19 16:30N 68°25' E 016°00'0 0.0
2017-Oct-19 16:00N 68°25' E 016°00'0 0.0
2017-Oct-19 15:30N 68°25' E 016°00'0 0.0
2017-Oct-19 15:00N 68°25' E 016°00'0 0.0
2017-Oct-19 14:29N 68°25' E 016°00'0 0.0
2017-Oct-19 14:00N 68°25' E 016°00'0 0.0
2017-Oct-19 13:30N 68°25' E 016°00'1 1.8
2017-Oct-19 13:00N 68°24' E 016°02'1 1.9
2017-Oct-19 12:30N 68°25' E 016°00'0 0.0
2017-Oct-19 11:59N 68°25' E 016°00'0 0.0
2017-Oct-19 11:30N 68°25' E 016°00'3 5.2
2017-Oct-19 11:00N 68°22' E 015°58'612.4
2017-Oct-19 10:30N 68°17' E 015°49'713.8
2017-Oct-19 10:00N 68°23' E 015°59'2 3.3
2017-Oct-19 09:30N 68°25' E 016°00'0 0.0
2017-Oct-19 09:00N 68°25' E 016°00'0 0.0
2017-Oct-19 08:30N 68°25' E 016°00'0 0.0
2017-Oct-19 08:00N 68°25' E 016°00'0 0.0
2017-Oct-19 07:30N 68°25' E 016°00'0 0.0
2017-Oct-19 07:00N 68°25' E 016°00'0 0.0
2017-Oct-19 06:30N 68°25' E 016°00'0 0.0
2017-Oct-19 06:00N 68°25' E 016°00'0 0.0
2017-Oct-19 05:30N 68°25' E 016°00'0 0.0
2017-Oct-19 05:00N 68°25' E 016°00'0 0.0
2017-Oct-19 04:30N 68°25' E 016°00'0 0.0
2017-Oct-19 04:00N 68°25' E 016°00'0 0.0
2017-Oct-19 03:30N 68°25' E 016°00'0 0.0
2017-Oct-19 03:01N 68°25' E 016°00'0 0.0
2017-Oct-19 02:30N 68°25' E 016°00'0 0.0
2017-Oct-19 02:00N 68°25' E 016°00'0 0.0
2017-Oct-19 01:30N 68°25' E 016°00'0 0.0
2017-Oct-19 01:00N 68°25' E 016°00'0 0.0
2017-Oct-19 00:30N 68°25' E 016°00'0 0.0
2017-Oct-19 00:00N 68°25' E 016°00'0 0.0
2017-Oct-18 23:30N 68°25' E 016°00'0 0.0
2017-Oct-18 23:00N 68°25' E 016°00'0 0.0
2017-Oct-18 22:30N 68°25' E 016°00'0 0.0
2017-Oct-18 22:00N 68°25' E 016°00'0 0.0
2017-Oct-18 21:30N 68°25' E 016°00'0 0.0
2017-Oct-18 21:00N 68°25' E 016°00'0 0.0
2017-Oct-18 20:30N 68°25' E 016°00'0 0.0
2017-Oct-18 20:00N 68°25' E 016°00'0 0.0
2017-Oct-18 19:30N 68°25' E 016°00'0 0.0
2017-Oct-18 19:00N 68°25' E 016°00'0 0.0
2017-Oct-18 18:31N 68°25' E 016°00'0 0.0
2017-Oct-18 18:00N 68°25' E 016°00'0 0.0
2017-Oct-18 17:30N 68°25' E 016°00'0 0.0
2017-Oct-18 17:00N 68°25' E 016°00'0 0.0
2017-Oct-18 16:30N 68°25' E 016°00'0 0.0
2017-Oct-18 16:00N 68°25' E 016°00'0 0.0
2017-Oct-18 15:30N 68°25' E 016°00'0 0.0
2017-Oct-18 15:00N 68°25' E 016°00'0 0.0
2017-Oct-18 14:00N 68°25' E 016°00'0 0.0
2017-Oct-18 13:30N 68°25' E 016°00'0 0.0
2017-Oct-18 13:00N 68°25' E 016°00'0 0.0
2017-Oct-18 12:30N 68°25' E 016°00'0 0.0
2017-Oct-18 12:00N 68°25' E 016°00'0 0.0
2017-Oct-18 11:30N 68°25' E 016°00'0 0.8
2017-Oct-18 11:00N 68°25' E 015°60'0 0.0
2017-Oct-18 10:30N 68°25' E 015°60'0 0.0
2017-Oct-18 10:00N 68°25' E 015°60'0 0.0
2017-Oct-18 09:30N 68°25' E 015°60'2 4.1
2017-Oct-18 09:00N 68°23' E 015°60'2 3.5
2017-Oct-18 08:30N 68°25' E 016°00'1 2.7
2017-Oct-18 08:00N 68°23' E 015°60'3 6.7
2017-Oct-18 07:30N 68°20' E 015°60'4 8.6
2017-Oct-18 07:00N 68°23' E 016°09'4 7.8
2017-Oct-18 06:31N 68°25' E 016°00'0 0.0
2017-Oct-18 06:00N 68°25' E 016°00'0 0.0
2017-Oct-18 05:30N 68°25' E 016°00'0 0.0
2017-Oct-18 05:00N 68°25' E 016°00'0 0.0
2017-Oct-18 04:30N 68°25' E 016°00'0 0.0
2017-Oct-18 04:00N 68°25' E 016°00'1020.3
2017-Oct-18 03:30N 68°17' E 015°44'1 1.1
2017-Oct-18 03:00N 68°17' E 015°45'1018.7
2017-Oct-18 02:30N 68°25' E 016°00'0 0.0
2017-Oct-18 02:00N 68°25' E 016°00'0 0.0
2017-Oct-18 01:30N 68°25' E 016°00'0 0.0
2017-Oct-18 01:00N 68°25' E 016°00'0 0.0
2017-Oct-18 00:29N 68°25' E 016°00'0 0.0
2017-Oct-18 00:00N 68°25' E 016°00'0 0.0
2017-Oct-17 23:30N 68°25' E 016°00'0 0.0
2017-Oct-17 23:01N 68°25' E 016°00'0 0.0
2017-Oct-17 22:30N 68°25' E 016°00'0 0.0
2017-Oct-17 22:00N 68°25' E 016°00'0 0.0
2017-Oct-17 21:30N 68°25' E 016°00'0 0.0
2017-Oct-17 21:00N 68°25' E 016°00'0 0.0
2017-Oct-17 20:30N 68°25' E 016°00'0 0.0
2017-Oct-17 20:00N 68°25' E 016°00'0 0.0
2017-Oct-17 19:30N 68°25' E 016°00'0 0.0
2017-Oct-17 19:00N 68°25' E 016°00'0 0.0
2017-Oct-17 18:30N 68°25' E 016°00'0 0.0
2017-Oct-17 18:01N 68°25' E 016°00'0 0.0
2017-Oct-17 17:30N 68°25' E 016°00'0 0.0
2017-Oct-17 17:01N 68°25' E 016°00'0 0.0
2017-Oct-17 16:31N 68°25' E 016°00'0 0.0
2017-Oct-17 16:01N 68°25' E 016°00'0 0.0
2017-Oct-17 15:30N 68°25' E 016°00'0 0.0
2017-Oct-17 15:00N 68°25' E 016°00'0 0.0
2017-Oct-17 14:30N 68°25' E 016°00'0 0.0
2017-Oct-17 14:00N 68°25' E 016°00'0 0.0
2017-Oct-17 13:30N 68°25' E 016°00'0 0.0
2017-Oct-17 13:00N 68°25' E 016°00'3 5.0
2017-Oct-17 12:30N 68°22' E 015°58'1021.1
2017-Oct-17 12:00N 68°14' E 015°41'815.1
2017-Oct-17 11:30N 68°21' E 015°50'510.8
2017-Oct-17 11:00N 68°25' E 016°00'0 0.0
2017-Oct-17 10:30N 68°25' E 016°00'0 0.0
2017-Oct-17 10:00N 68°25' E 016°00'0 0.0
2017-Oct-17 09:30N 68°25' E 016°00'0 0.0
2017-Oct-17 09:00N 68°25' E 016°00'0 0.0
2017-Oct-17 08:30N 68°25' E 016°00'0 0.0
2017-Oct-17 08:00N 68°25' E 016°00'0 0.0
2017-Oct-17 07:30N 68°25' E 016°00'0 0.0
2017-Oct-17 07:00N 68°25' E 016°00'0 0.0
2017-Oct-17 06:30N 68°25' E 016°00'0 0.0
2017-Oct-17 06:00N 68°25' E 016°00'0 0.0
2017-Oct-17 05:30N 68°25' E 016°00'0 0.0
2017-Oct-17 05:00N 68°25' E 016°00'0 0.0
2017-Oct-17 04:30N 68°25' E 016°00'0 0.0
2017-Oct-17 04:00N 68°25' E 016°00'0 0.0
2017-Oct-17 03:30N 68°25' E 016°00'0 0.0
2017-Oct-17 03:00N 68°25' E 016°00'0 0.0
2017-Oct-17 02:30N 68°25' E 016°00'0 0.0
2017-Oct-17 02:00N 68°25' E 016°00'0 0.0
2017-Oct-17 01:30N 68°25' E 016°00'0 0.0
2017-Oct-17 01:00N 68°25' E 016°00'0 0.0
2017-Oct-17 00:30N 68°25' E 016°00'0 0.0
2017-Oct-17 00:00N 68°25' E 016°00'0 0.0
2017-Oct-16 23:30N 68°25' E 016°00'0 0.0
2017-Oct-16 23:00N 68°25' E 016°00'0 0.0
2017-Oct-16 22:30N 68°25' E 016°00'0 0.0
2017-Oct-16 21:59N 68°25' E 016°00'0 0.0
2017-Oct-16 21:30N 68°25' E 016°00'0 0.0
2017-Oct-16 21:00N 68°25' E 016°00'0 0.0
2017-Oct-16 20:30N 68°25' E 016°00'0 0.0
2017-Oct-16 20:00N 68°25' E 016°00'0 0.0
2017-Oct-16 19:30N 68°25' E 016°00'0 0.0
2017-Oct-16 19:00N 68°25' E 016°00'0 0.0
2017-Oct-16 18:30N 68°25' E 016°00'0 0.0
2017-Oct-16 18:00N 68°25' E 016°00'0 0.0
2017-Oct-16 17:30N 68°25' E 016°00'0 0.0
2017-Oct-16 17:00N 68°25' E 016°00'0 0.0
2017-Oct-16 16:30N 68°25' E 016°00'0 0.0
2017-Oct-16 16:00N 68°25' E 016°00'0 0.0
2017-Oct-16 15:30N 68°25' E 016°00'0 0.0
2017-Oct-16 15:00N 68°25' E 016°00'0 0.0
2017-Oct-16 14:30N 68°25' E 016°00'0 0.0
2017-Oct-16 13:30N 68°25' E 016°00'0 0.0
2017-Oct-16 13:00N 68°25' E 016°00'0 0.0
2017-Oct-16 12:30N 68°25' E 016°00'0 0.0
2017-Oct-16 12:00N 68°25' E 016°00'0 0.0
2017-Oct-16 11:30N 68°25' E 016°00'0 0.0
2017-Oct-16 11:00N 68°25' E 016°00'0 0.0
2017-Oct-16 10:30N 68°25' E 016°00'0 0.0
2017-Oct-16 10:00N 68°25' E 016°00'0 0.0
2017-Oct-16 09:30N 68°25' E 016°00'0 0.0
2017-Oct-16 09:00N 68°25' E 016°00'0 0.0
2017-Oct-16 08:30N 68°25' E 016°00'0 0.0
2017-Oct-16 08:00N 68°25' E 016°00'0 0.0
2017-Oct-16 07:30N 68°25' E 016°00'0 0.0
2017-Oct-16 07:00N 68°25' E 016°00'0 0.0
2017-Oct-16 06:30N 68°25' E 016°00'0 0.0
2017-Oct-16 06:00N 68°25' E 016°00'0 0.0
2017-Oct-16 05:30N 68°25' E 016°00'0 0.0
2017-Oct-16 05:00N 68°25' E 016°00'0 0.0
2017-Oct-16 04:30N 68°25' E 016°00'0 0.0
2017-Oct-16 04:00N 68°25' E 016°00'0 0.0
2017-Oct-16 03:30N 68°25' E 016°00'0 0.0
2017-Oct-16 02:59N 68°25' E 016°00'0 0.0
2017-Oct-16 02:30N 68°25' E 016°00'0 0.0
2017-Oct-16 02:00N 68°25' E 016°00'0 0.0
2017-Oct-16 01:30N 68°25' E 016°00'0 0.0
2017-Oct-16 01:00N 68°25' E 016°00'0 0.0
2017-Oct-16 00:30N 68°25' E 016°00'0 0.0
2017-Oct-15 23:59N 68°25' E 016°00'0 0.0
2017-Oct-15 23:30N 68°25' E 016°00'1 2.1
2017-Oct-15 23:00N 68°24' E 016°02'1 2.1
2017-Oct-15 22:30N 68°25' E 016°00'0 0.2
2017-Oct-15 22:00N 68°25' E 016°00'1 2.0
2017-Oct-15 21:30N 68°24' E 016°02'1 1.9
2017-Oct-15 21:00N 68°25' E 016°00'0 0.0
2017-Oct-15 20:31N 68°25' E 016°00'0 0.0
2017-Oct-15 20:01N 68°25' E 016°00'0 0.0
2017-Oct-15 19:30N 68°25' E 016°00'0 0.0
2017-Oct-15 19:00N 68°25' E 016°00'0 0.0
2017-Oct-15 18:30N 68°25' E 016°00'0 0.0
2017-Oct-15 18:00N 68°25' E 016°00'0 0.0
2017-Oct-15 17:29N 68°25' E 016°00'0 0.0
2017-Oct-15 17:00N 68°25' E 016°00'0 0.0
2017-Oct-15 16:30N 68°25' E 016°00'0 0.0
2017-Oct-15 16:00N 68°25' E 016°00'0 0.0
2017-Oct-15 15:31N 68°25' E 016°00'0 0.0
2017-Oct-15 15:01N 68°25' E 016°00'0 0.0
2017-Oct-15 14:01N 68°25' E 016°00'0 0.0
2017-Oct-15 13:30N 68°25' E 016°00'0 0.0
2017-Oct-15 13:00N 68°25' E 016°00'0 0.0
2017-Oct-15 12:31N 68°25' E 016°00'0 0.0
2017-Oct-15 12:00N 68°25' E 016°00'0 0.0
2017-Oct-15 11:30N 68°25' E 016°00'0 0.0
2017-Oct-15 11:00N 68°25' E 016°00'0 0.0
2017-Oct-15 10:30N 68°25' E 016°00'0 0.0
2017-Oct-15 10:00N 68°25' E 016°00'0 0.0
2017-Oct-15 09:30N 68°25' E 016°00'0 0.0
2017-Oct-15 09:01N 68°25' E 016°00'0 0.0
2017-Oct-15 08:30N 68°25' E 016°00'0 0.0
2017-Oct-15 08:00N 68°25' E 016°00'0 0.0
2017-Oct-15 07:30N 68°25' E 016°00'0 0.0
2017-Oct-15 07:00N 68°25' E 016°00'0 0.0
2017-Oct-15 06:30N 68°25' E 016°00'0 0.0
2017-Oct-15 06:00N 68°25' E 016°00'0 0.0
2017-Oct-15 05:30N 68°25' E 016°00'0 0.0
2017-Oct-15 05:00N 68°25' E 016°00'0 0.0
2017-Oct-15 04:30N 68°25' E 016°00'0 0.0
2017-Oct-15 04:00N 68°25' E 016°00'0 0.0
2017-Oct-15 03:30N 68°25' E 016°00'0 0.0
2017-Oct-15 03:00N 68°25' E 016°00'612.8
2017-Oct-15 02:30N 68°19' E 015°52'611.6
2017-Oct-15 02:00N 68°15' E 015°41'1121.7
2017-Oct-15 01:30N 68°23' E 015°59'2 3.6
2017-Oct-15 01:01N 68°25' E 016°02'1 1.1
2017-Oct-15 00:30N 68°25' E 016°00'0 0.0
2017-Oct-15 00:00N 68°25' E 016°00'0 0.0
2017-Oct-14 23:30N 68°25' E 016°00'0 0.0
2017-Oct-14 23:00N 68°25' E 016°00'0 0.0
2017-Oct-14 22:30N 68°25' E 016°00'0 0.0
2017-Oct-14 22:00N 68°25' E 016°00'0 0.0
2017-Oct-14 21:30N 68°25' E 016°00'0 0.0
2017-Oct-14 21:00N 68°25' E 016°00'0 0.0
2017-Oct-14 20:30N 68°25' E 016°00'0 0.0
2017-Oct-14 20:00N 68°25' E 016°00'0 0.0
2017-Oct-14 19:30N 68°25' E 016°00'0 0.0
2017-Oct-14 19:00N 68°25' E 016°00'0 0.0
2017-Oct-14 18:30N 68°25' E 016°00'0 0.0
2017-Oct-14 18:01N 68°25' E 016°00'0 0.0
2017-Oct-14 17:30N 68°25' E 016°00'0 0.0
2017-Oct-14 17:00N 68°25' E 016°00'0 0.0
2017-Oct-14 16:30N 68°25' E 016°00'0 0.0
2017-Oct-14 16:00N 68°25' E 016°00'0 0.0
2017-Oct-14 15:30N 68°25' E 016°00'0 0.0
2017-Oct-14 15:00N 68°25' E 016°00'0 0.0
2017-Oct-14 14:30N 68°25' E 016°00'0 0.0
2017-Oct-14 14:00N 68°25' E 016°00'0 0.0
2017-Oct-14 13:30N 68°25' E 016°00'0 0.0
2017-Oct-14 13:00N 68°25' E 016°00'0 0.0
2017-Oct-14 12:30N 68°25' E 016°00'0 0.0
2017-Oct-14 12:00N 68°25' E 016°00'816.8
2017-Oct-14 11:30N 68°16' E 016°03'817.0
2017-Oct-14 11:00N 68°25' E 016°00'0 0.0
2017-Oct-14 10:30N 68°25' E 016°00'0 0.0
2017-Oct-14 10:00N 68°25' E 016°00'0 0.0
2017-Oct-14 09:29N 68°25' E 016°00'0 0.0
2017-Oct-14 09:00N 68°25' E 016°00'0 0.0
2017-Oct-14 08:30N 68°25' E 016°00'0 0.0
2017-Oct-14 08:00N 68°25' E 016°00'0 0.0
2017-Oct-14 07:30N 68°25' E 016°00'0 0.0
2017-Oct-14 07:00N 68°25' E 016°00'0 0.0
2017-Oct-14 06:30N 68°25' E 016°00'4 8.4
2017-Oct-14 06:00N 68°21' E 015°55'1122.7
2017-Oct-14 05:30N 68°13' E 015°34'1223.7
2017-Oct-14 05:00N 68°21' E 015°56'4 7.1
2017-Oct-14 04:29N 68°25' E 016°00'0 0.0
2017-Oct-14 04:00N 68°25' E 016°00'0 0.0
2017-Oct-14 03:30N 68°25' E 016°00'0 0.0
2017-Oct-14 03:00N 68°25' E 016°00'0 0.0
2017-Oct-14 02:30N 68°25' E 016°00'0 0.0
2017-Oct-14 02:00N 68°25' E 016°00'0 0.0
2017-Oct-14 01:30N 68°25' E 016°00'4 7.0
2017-Oct-14 01:00N 68°23' E 016°08'4 7.0
2017-Oct-14 00:30N 68°25' E 016°00'0 0.0
2017-Oct-14 00:00N 68°25' E 016°00'0 0.0
2017-Oct-13 23:30N 68°25' E 016°00'0 0.0
2017-Oct-13 23:00N 68°25' E 016°00'0 0.0
2017-Oct-13 22:30N 68°25' E 016°00'0 0.0
2017-Oct-13 22:00N 68°25' E 016°00'0 0.0
2017-Oct-13 21:30N 68°25' E 016°00'0 0.0
2017-Oct-13 21:00N 68°25' E 016°00'0 0.0
2017-Oct-13 20:30N 68°25' E 016°00'3 6.7
2017-Oct-13 19:59N 68°23' E 016°08'3 6.9
2017-Oct-13 19:30N 68°25' E 016°01'0 0.5
2017-Oct-13 19:00N 68°25' E 016°00'0 0.0
2017-Oct-13 18:29N 68°25' E 016°00'0 0.0
2017-Oct-13 18:00N 68°25' E 016°00'0 0.0
2017-Oct-13 17:30N 68°25' E 016°00'0 0.0
2017-Oct-13 17:00N 68°25' E 016°00'0 0.0
2017-Oct-13 16:30N 68°25' E 016°00'0 0.0
2017-Oct-13 16:00N 68°25' E 016°00'0 0.0
2017-Oct-13 15:30N 68°25' E 016°00'0 0.0
2017-Oct-13 15:00N 68°25' E 016°00'0 0.0
2017-Oct-13 14:30N 68°25' E 016°00'4 7.7
2017-Oct-13 14:00N 68°21' E 015°56'714.6
2017-Oct-13 13:30N 68°15' E 015°46'1224.4
2017-Oct-13 13:00N 68°21' E 016°14'612.0
2017-Oct-13 12:30N 68°25' E 016°00'0 0.0
2017-Oct-13 12:00N 68°25' E 016°00'0 0.0
2017-Oct-13 11:30N 68°25' E 016°00'0 0.0
2017-Oct-13 11:00N 68°25' E 016°00'0 0.0
2017-Oct-13 10:30N 68°25' E 016°00'0 0.0
2017-Oct-13 09:59N 68°25' E 016°00'0 0.0
2017-Oct-13 09:29N 68°25' E 016°00'0 0.0
2017-Oct-13 09:00N 68°25' E 016°00'0 0.0
2017-Oct-13 08:30N 68°25' E 016°00'0 0.0
2017-Oct-13 08:00N 68°25' E 016°00'  

Dump ship's entire track history